Time;durP1;ratioP1;P1;durP2;ratioP2;P2;SDS_P1;SDS_P2;PMS_P1;PMS_P2;Temp;Humidity;BMP_temperature;BMP_pressure;BME280_temperature;BME280_humidity;BME280_pressure;Samples;Min_cycle;Max_cycle;Signal;HPM_P1;HPM_P2
2022/01/13 00:01:11;;;;;;;49.17;24.87;;;0.90;99.90;;;;;;5094467;28;20173;-62
2022/01/13 00:03:37;;;;;;;38.35;21.08;;;0.90;99.90;;;;;;5094553;28;20631;-62
2022/01/13 00:06:03;;;;;;;29.33;15.67;;;0.90;99.90;;;;;;5093684;28;20176;-62
2022/01/13 00:08:29;;;;;;;25.05;15.32;;;0.90;99.90;;;;;;5094597;28;20309;-62
2022/01/13 00:10:54;;;;;;;30.87;15.03;;;0.90;99.90;;;;;;5094565;28;20186;-62
2022/01/13 00:13:24;;;;;;;32.03;14.87;;;0.90;99.90;;;;;;5094065;28;20567;-62
2022/01/13 00:16:11;;;;;;;20.17;12.40;;;0.90;99.90;;;;;;5094082;28;20179;-62
2022/01/13 00:18:41;;;;;;;23.50;13.10;;;0.90;99.90;;;;;;5094524;28;20673;-62
2022/01/13 00:21:30;;;;;;;21.98;12.38;;;0.90;99.90;;;;;;5093894;28;20183;-62
2022/01/13 00:24:00;;;;;;;22.67;13.10;;;0.90;99.90;;;;;;5095023;28;20173;-62
2022/01/13 00:26:27;;;;;;;23.60;13.10;;;0.90;99.90;;;;;;5093896;28;20225;-63
2022/01/13 00:28:54;;;;;;;23.80;12.93;;;0.90;99.90;;;;;;5090581;28;20643;-62
2022/01/13 00:31:26;;;;;;;20.80;12.00;;;0.90;99.90;;;;;;5093585;28;20187;-62
2022/01/13 00:33:54;;;;;;;22.97;12.93;;;0.90;99.90;;;;;;5093831;28;20203;-62
2022/01/13 00:36:22;;;;;;;20.63;11.73;;;0.80;99.90;;;;;;5093583;28;20574;-62
2022/01/13 00:38:48;;;;;;;21.47;12.13;;;0.80;99.90;;;;;;5094076;28;20251;-62
2022/01/13 00:41:13;;;;;;;23.90;13.53;;;0.80;99.90;;;;;;5093584;28;20208;-62
2022/01/13 00:43:41;;;;;;;22.60;12.60;;;0.80;99.90;;;;;;5093968;28;20691;-62
2022/01/13 00:46:09;;;;;;;22.63;13.55;;;0.80;99.90;;;;;;5093803;28;20268;-62
2022/01/13 00:48:34;;;;;;;24.17;14.10;;;0.80;99.90;;;;;;5094213;28;20238;-62
2022/01/13 00:51:00;;;;;;;22.13;12.77;;;0.80;99.90;;;;;;5093448;28;20678;-62
2022/01/13 00:53:26;;;;;;;23.57;13.07;;;0.80;99.90;;;;;;5094057;28;20172;-62
2022/01/13 00:55:58;;;;;;;26.48;12.75;;;0.90;99.90;;;;;;5093643;28;20184;-62
2022/01/13 00:58:28;;;;;;;22.63;12.30;;;0.90;99.90;;;;;;5093287;28;20227;-62
2022/01/13 01:00:56;;;;;;;22.40;13.07;;;0.90;99.90;;;;;;5093416;28;20180;-62
2022/01/13 01:03:22;;;;;;;24.20;13.33;;;0.90;99.90;;;;;;5093740;28;20759;-62
2022/01/13 01:05:48;;;;;;;22.67;11.97;;;0.90;99.90;;;;;;5091265;28;20271;-62
2022/01/13 01:08:14;;;;;;;24.15;12.90;;;1.00;99.90;;;;;;5092773;28;20305;-62
2022/01/13 01:10:40;;;;;;;24.13;13.57;;;1.00;99.90;;;;;;5092274;28;20263;-62
2022/01/13 01:13:13;;;;;;;22.67;13.00;;;1.00;99.90;;;;;;5093221;28;20180;-62
2022/01/13 01:15:44;;;;;;;21.60;12.93;;;1.00;99.90;;;;;;5093118;28;20187;-62
2022/01/13 01:26:37;;;;;;;24.60;12.88;;;1.00;99.90;;;;;;5088239;28;20176;-62
2022/01/13 01:31:35;;;;;;;23.23;12.80;;;1.00;99.90;;;;;;5093368;28;20191;-62
2022/01/13 01:34:28;;;;;;;22.43;12.17;;;1.00;99.90;;;;;;5092676;28;20192;-62
2022/01/13 01:36:55;;;;;;;19.53;11.43;;;0.90;99.90;;;;;;5090805;28;20651;-62
2022/01/13 01:39:20;;;;;;;22.83;11.90;;;0.90;99.90;;;;;;5093183;28;20211;-62
2022/01/13 01:41:50;;;;;;;21.47;12.10;;;0.90;99.90;;;;;;5092103;28;20208;-62
2022/01/13 01:44:19;;;;;;;20.77;12.23;;;0.90;99.90;;;;;;5091309;28;20204;-62
2022/01/13 01:46:46;;;;;;;21.23;12.77;;;0.90;99.90;;;;;;5092819;28;20589;-62
2022/01/13 01:49:18;;;;;;;23.17;12.20;;;0.90;99.90;;;;;;5092428;28;20195;-62
2022/01/13 01:51:47;;;;;;;19.37;11.67;;;0.80;99.90;;;;;;5091245;28;20666;-62
2022/01/13 01:54:13;;;;;;;21.70;12.07;;;0.80;99.90;;;;;;5091789;28;20184;-62
2022/01/13 01:56:39;;;;;;;22.97;13.20;;;0.70;99.90;;;;;;5092054;28;20636;-62
2022/01/13 01:59:11;;;;;;;19.73;11.57;;;0.70;99.90;;;;;;5092449;28;20710;-62
2022/01/13 02:01:37;;;;;;;18.90;11.73;;;0.70;99.90;;;;;;5092334;28;20202;-62
2022/01/13 02:04:02;;;;;;;20.20;11.37;;;0.60;99.90;;;;;;5091851;28;20261;-62
2022/01/13 02:06:28;;;;;;;21.37;11.53;;;0.60;99.90;;;;;;5091722;28;20172;-62
2022/01/13 02:08:56;;;;;;;21.10;12.27;;;0.60;99.90;;;;;;5090898;28;20538;-62
2022/01/13 02:11:22;;;;;;;22.90;12.40;;;0.50;99.90;;;;;;5091937;28;20187;-62
2022/01/13 02:13:51;;;;;;;23.07;12.47;;;0.50;99.90;;;;;;5092752;28;20168;-61
2022/01/13 02:18:55;;;;;;;25.13;13.20;;;0.40;99.90;;;;;;5092287;28;20246;-61
2022/01/13 02:21:21;;;;;;;21.70;12.57;;;0.40;99.90;;;;;;5091890;28;20269;-61
2022/01/13 02:23:46;;;;;;;22.27;12.73;;;0.30;99.90;;;;;;5086369;28;20184;-61
2022/01/13 02:26:12;;;;;;;21.93;12.20;;;0.30;99.90;;;;;;5091869;28;20180;-61
2022/01/13 02:28:38;;;;;;;20.60;12.17;;;0.20;99.90;;;;;;5091904;28;20551;-62
2022/01/13 02:31:04;;;;;;;21.33;12.00;;;0.20;99.90;;;;;;5091774;28;20233;-62
2022/01/13 02:33:30;;;;;;;26.47;12.00;;;0.10;99.90;;;;;;5092036;28;20175;-62
2022/01/13 02:35:55;;;;;;;22.50;12.33;;;0.10;99.90;;;;;;5091781;28;20187;-61
2022/01/13 02:38:21;;;;;;;24.30;13.00;;;0.10;99.90;;;;;;5096104;28;20743;-62
2022/01/13 02:40:57;;;;;;;22.17;11.97;;;0.00;99.90;;;;;;5091398;28;20198;-62
2022/01/13 02:43:24;;;;;;;21.70;12.20;;;0.00;99.90;;;;;;5090313;28;20176;-62
2022/01/13 02:48:48;;;;;;;19.53;11.87;;;0.00;99.90;;;;;;5055792;28;20238;-62
2022/01/13 02:51:14;;;;;;;21.83;11.80;;;-0.10;99.90;;;;;;5090145;28;20172;-62
2022/01/13 02:53:39;;;;;;;23.70;12.43;;;-0.20;99.90;;;;;;5091984;28;20184;-62
2022/01/13 02:56:05;;;;;;;21.40;11.80;;;-0.20;99.90;;;;;;5091476;28;20536;-62
2022/01/13 02:58:32;;;;;;;23.23;11.80;;;-0.30;99.90;;;;;;5091778;28;20686;-61
2022/01/13 03:00:59;;;;;;;21.83;12.33;;;-0.30;99.90;;;;;;5091375;28;20632;-62
2022/01/13 03:03:25;;;;;;;22.40;12.20;;;-0.30;99.90;;;;;;5091477;28;20198;-61
2022/01/13 03:05:50;;;;;;;22.03;11.60;;;-0.30;99.90;;;;;;5091445;28;20180;-62
2022/01/13 03:08:16;;;;;;;21.90;11.90;;;-0.30;99.90;;;;;;5091691;28;20211;-62
2022/01/13 03:10:42;;;;;;;21.57;11.37;;;-0.30;99.90;;;;;;5090936;28;20192;-62
2022/01/13 03:13:08;;;;;;;26.67;14.53;;;-0.40;99.90;;;;;;5091514;28;20183;-62
2022/01/13 03:15:34;;;;;;;29.50;15.17;;;-0.40;99.90;;;;;;5090829;28;20639;-62
2022/01/13 03:17:59;;;;;;;38.80;18.60;;;-0.50;99.90;;;;;;5091812;28;20243;-62
2022/01/13 03:20:25;;;;;;;31.43;17.20;;;-0.60;99.90;;;;;;5089599;28;20181;-61
2022/01/13 03:22:51;;;;;;;27.60;15.07;;;-0.50;99.90;;;;;;5091531;28;20176;-62
2022/01/13 03:25:21;;;;;;;26.27;14.67;;;-0.50;99.90;;;;;;5090014;28;20180;-62
2022/01/13 03:27:53;;;;;;;21.07;12.20;;;-0.60;99.90;;;;;;5090884;28;20168;-62
2022/01/13 03:30:19;;;;;;;20.90;11.37;;;-0.60;99.90;;;;;;5091168;28;20351;-62
2022/01/13 03:32:44;;;;;;;21.40;10.80;;;-0.60;99.90;;;;;;5092428;28;20565;-61
2022/01/13 03:35:10;;;;;;;21.93;11.90;;;-0.70;99.90;;;;;;5094946;28;20647;-61
2022/01/13 03:37:35;;;;;;;20.53;12.03;;;-0.70;99.90;;;;;;5095527;28;20609;-62
2022/01/13 03:40:01;;;;;;;25.20;13.10;;;-0.70;99.90;;;;;;5095281;28;20226;-62
2022/01/13 03:42:27;;;;;;;21.13;12.37;;;-0.70;99.90;;;;;;5094953;28;20211;-61
2022/01/13 03:44:54;;;;;;;19.97;12.47;;;-0.70;99.90;;;;;;5095164;28;20596;-62
2022/01/13 03:47:21;;;;;;;20.20;12.07;;;-0.70;99.90;;;;;;5094820;28;20180;-62
2022/01/13 03:49:46;;;;;;;20.93;12.47;;;-0.80;99.90;;;;;;5094282;28;20210;-61
2022/01/13 03:52:24;;;;;;;23.10;12.63;;;-0.80;99.90;;;;;;5093518;28;20184;-61
2022/01/13 03:55:31;;;;;;;22.90;12.57;;;-0.80;99.90;;;;;;5094975;28;20207;-62
2022/01/13 03:57:56;;;;;;;23.80;12.10;;;-0.90;99.90;;;;;;5084805;28;20227;-62
2022/01/13 04:00:53;;;;;;;22.03;11.97;;;-0.90;99.90;;;;;;5094186;28;20188;-61
2022/01/13 04:03:18;;;;;;;20.23;11.23;;;-0.90;99.90;;;;;;5094712;28;20176;-62
2022/01/13 04:06:19;;;;;;;23.00;12.23;;;-1.00;99.90;;;;;;5094034;28;20172;-62
2022/01/13 04:08:49;;;;;;;81.10;27.27;;;-1.00;99.90;;;;;;5012320;28;20187;-62
2022/01/13 04:11:31;;;;;;;93.90;31.20;;;-1.00;99.90;;;;;;5080097;28;20188;-62
2022/01/13 04:14:01;;;;;;;60.43;23.43;;;-1.10;99.90;;;;;;5094104;28;20187;-62
2022/01/13 04:16:31;;;;;;;34.87;16.70;;;-1.10;99.90;;;;;;5094611;28;20176;-62
2022/01/13 04:19:02;;;;;;;31.43;15.53;;;-1.10;99.90;;;;;;5093715;28;20682;-62
2022/01/13 04:21:28;;;;;;;23.70;13.50;;;-1.10;99.90;;;;;;5094333;28;20182;-62
2022/01/13 04:23:56;;;;;;;23.40;12.33;;;-1.20;99.90;;;;;;5094570;28;20180;-62
2022/01/13 04:26:27;;;;;;;22.60;12.17;;;-1.20;99.90;;;;;;5094150;28;20179;-62
2022/01/13 04:29:02;;;;;;;23.07;12.40;;;-1.20;99.90;;;;;;5094250;28;20188;-62
2022/01/13 04:31:28;;;;;;;24.50;12.07;;;-1.20;99.90;;;;;;5092896;28;20192;-62
2022/01/13 04:33:54;;;;;;;19.50;11.67;;;-1.20;99.90;;;;;;5094278;28;20515;-62
2022/01/13 04:36:19;;;;;;;25.23;12.23;;;-1.30;99.90;;;;;;5093509;28;20658;-62
2022/01/13 04:38:45;;;;;;;21.53;11.10;;;-1.30;99.90;;;;;;5093759;28;20219;-61
2022/01/13 04:41:10;;;;;;;22.30;11.73;;;-1.30;99.90;;;;;;5093815;28;20664;-60
2022/01/13 04:43:36;;;;;;;20.50;11.27;;;-1.30;99.90;;;;;;5093078;28;20196;-61
2022/01/13 04:46:01;;;;;;;20.53;11.50;;;-1.30;99.90;;;;;;5093859;28;20643;-61
2022/01/13 04:48:27;;;;;;;23.83;12.50;;;-1.30;99.90;;;;;;5094501;28;20182;-61
2022/01/13 04:50:53;;;;;;;20.57;12.20;;;-1.30;99.90;;;;;;5093962;28;20184;-61
2022/01/13 04:53:18;;;;;;;22.50;12.07;;;-1.30;99.90;;;;;;5093696;28;20192;-61
2022/01/13 04:55:52;;;;;;;22.03;11.63;;;-1.30;99.90;;;;;;5094098;28;20176;-61
2022/01/13 04:58:18;;;;;;;21.00;11.83;;;-1.30;99.90;;;;;;5094925;28;20223;-61
2022/01/13 05:00:44;;;;;;;24.83;12.33;;;-1.30;99.90;;;;;;5114370;28;20634;-62
2022/01/13 05:03:09;;;;;;;23.17;12.00;;;-1.30;99.90;;;;;;5093867;28;20211;-66
2022/01/13 05:05:35;;;;;;;22.00;11.83;;;-1.40;99.90;;;;;;5093219;28;20184;-60
2022/01/13 05:08:00;;;;;;;22.60;12.33;;;-1.40;99.90;;;;;;5092929;28;20514;-60
2022/01/13 05:10:26;;;;;;;42.93;16.60;;;-1.40;99.90;;;;;;5093900;28;20653;-60
2022/01/13 05:12:57;;;;;;;55.00;20.33;;;-1.40;99.90;;;;;;5093428;28;20180;-60
2022/01/13 05:15:26;;;;;;;50.40;18.63;;;-1.40;99.90;;;;;;5105960;28;20180;-61
2022/01/13 05:20:24;;;;;;;24.70;12.73;;;-1.40;99.90;;;;;;5091942;28;20172;-60
2022/01/13 05:22:50;;;;;;;24.17;12.33;;;-1.50;99.90;;;;;;5079709;28;20188;-61
2022/01/13 05:25:16;;;;;;;25.13;12.37;;;-1.40;99.90;;;;;;5092954;28;20267;-61
2022/01/13 05:27:42;;;;;;;19.60;11.30;;;-1.50;99.90;;;;;;5093195;28;20195;-61
2022/01/13 05:30:09;;;;;;;24.33;12.37;;;-1.50;99.90;;;;;;5093048;28;20187;-61
2022/01/13 05:32:35;;;;;;;25.70;12.10;;;-1.50;99.90;;;;;;5092872;28;20204;-62
2022/01/13 05:35:01;;;;;;;20.60;12.13;;;-1.50;99.90;;;;;;5092726;28;20211;-63
2022/01/13 05:37:27;;;;;;;24.30;12.13;;;-1.60;99.90;;;;;;5092932;28;20773;-62
2022/01/13 05:39:52;;;;;;;28.07;13.67;;;-1.60;99.90;;;;;;5091205;28;20176;-62
2022/01/13 05:42:18;;;;;;;24.47;13.03;;;-1.70;99.90;;;;;;5091557;28;20648;-62
2022/01/13 05:44:43;;;;;;;22.47;12.07;;;-1.70;99.90;;;;;;5093387;28;20180;-62
2022/01/13 05:47:12;;;;;;;24.83;12.87;;;-1.70;99.90;;;;;;5093246;28;20199;-62
2022/01/13 05:49:40;;;;;;;21.30;11.77;;;-1.70;99.90;;;;;;5093462;28;20259;-62
2022/01/13 05:52:06;;;;;;;22.30;12.10;;;-1.70;99.90;;;;;;5093269;28;20740;-62
2022/01/13 05:54:32;;;;;;;24.47;12.47;;;-1.70;99.90;;;;;;5093376;28;20191;-62
2022/01/13 05:56:58;;;;;;;22.50;12.53;;;-1.70;99.90;;;;;;5092583;28;20176;-63
2022/01/13 05:59:24;;;;;;;24.23;12.63;;;-1.70;99.90;;;;;;5093176;28;20303;-62
2022/01/13 06:01:50;;;;;;;22.93;12.83;;;-1.70;99.90;;;;;;5093179;28;20230;-62
2022/01/13 06:04:16;;;;;;;23.20;12.67;;;-1.70;99.90;;;;;;5093030;28;20205;-62
2022/01/13 06:06:41;;;;;;;22.10;12.37;;;-1.70;99.90;;;;;;5093042;28;20219;-62
2022/01/13 06:09:07;;;;;;;23.63;11.30;;;-1.70;99.90;;;;;;5092829;28;20527;-62
2022/01/13 06:11:43;;;;;;;23.33;12.60;;;-1.70;99.90;;;;;;5093002;28;20172;-62
2022/01/13 06:14:08;;;;;;;26.13;13.60;;;-1.70;99.90;;;;;;5091773;28;20175;-62
2022/01/13 06:16:34;;;;;;;26.27;13.53;;;-1.80;99.90;;;;;;5092965;28;20623;-62
2022/01/13 06:19:00;;;;;;;24.70;13.13;;;-1.80;99.90;;;;;;5092806;28;20212;-62
2022/01/13 06:21:26;;;;;;;26.27;13.90;;;-1.80;99.90;;;;;;5092820;28;20172;-63
2022/01/13 06:23:51;;;;;;;26.57;14.27;;;-1.70;99.90;;;;;;5091518;28;20241;-63
2022/01/13 06:26:17;;;;;;;26.43;13.53;;;-1.70;99.90;;;;;;5092673;28;20176;-63
2022/01/13 06:28:43;;;;;;;26.60;13.47;;;-1.70;99.90;;;;;;5092748;28;20187;-62
2022/01/13 06:31:08;;;;;;;28.17;14.70;;;-1.80;99.90;;;;;;5092509;28;20179;-63
2022/01/13 06:33:34;;;;;;;26.57;13.63;;;-1.80;99.90;;;;;;5092646;28;20183;-63
2022/01/13 06:36:03;;;;;;;25.00;14.43;;;-1.80;99.90;;;;;;5092810;28;20524;-61
2022/01/13 06:38:29;;;;;;;25.40;14.37;;;-1.80;99.90;;;;;;5092544;28;20211;-62
2022/01/13 06:40:55;;;;;;;25.23;13.77;;;-1.80;99.90;;;;;;5092587;28;20184;-62
2022/01/13 06:43:21;;;;;;;29.37;15.07;;;-1.80;99.90;;;;;;5092744;28;20239;-62
2022/01/13 06:45:47;;;;;;;28.07;15.13;;;-1.80;99.90;;;;;;5092409;28;20172;-62
2022/01/13 06:48:12;;;;;;;34.30;16.33;;;-1.80;99.90;;;;;;5092485;28;20199;-62
2022/01/13 06:50:38;;;;;;;31.63;15.93;;;-1.80;99.90;;;;;;5092443;28;20206;-61
2022/01/13 06:53:04;;;;;;;32.33;16.60;;;-1.80;99.90;;;;;;5092440;28;20179;-62
2022/01/13 06:55:29;;;;;;;31.33;15.20;;;-1.80;99.90;;;;;;5092409;28;20183;-61
2022/01/13 06:57:55;;;;;;;26.80;14.27;;;-1.80;99.90;;;;;;5092009;28;20216;-62
2022/01/13 07:00:22;;;;;;;25.73;13.73;;;-1.80;99.90;;;;;;5092455;28;20196;-61
2022/01/13 07:02:48;;;;;;;26.33;14.20;;;-1.70;99.90;;;;;;5092546;28;20643;-61
2022/01/13 07:05:14;;;;;;;28.80;15.00;;;-1.70;99.90;;;;;;5092299;28;20180;-61
2022/01/13 07:07:40;;;;;;;30.77;13.93;;;-1.70;99.90;;;;;;5093130;28;20191;-61
2022/01/13 07:10:08;;;;;;;33.27;15.60;;;-1.70;99.90;;;;;;5096340;28;20194;-61
2022/01/13 07:12:33;;;;;;;29.73;15.87;;;-1.70;99.90;;;;;;5096529;28;20184;-62
2022/01/13 07:14:59;;;;;;;27.30;14.17;;;-1.70;99.90;;;;;;5096448;28;20678;-62
2022/01/13 07:17:25;;;;;;;30.07;15.00;;;-1.70;99.90;;;;;;5096198;28;20203;-62
2022/01/13 07:19:51;;;;;;;23.60;13.90;;;-1.70;99.90;;;;;;5096435;28;20184;-62
2022/01/13 07:22:17;;;;;;;26.70;13.30;;;-1.70;99.90;;;;;;5096074;28;20541;-62
2022/01/13 07:24:43;;;;;;;30.23;14.50;;;-1.80;99.90;;;;;;5096160;28;20253;-62
2022/01/13 07:27:09;;;;;;;25.90;13.80;;;-1.80;99.90;;;;;;5096013;28;20215;-62
2022/01/13 07:29:34;;;;;;;29.33;13.93;;;-1.80;99.90;;;;;;5096118;28;20168;-62
2022/01/13 07:32:00;;;;;;;27.13;15.00;;;-1.80;99.90;;;;;;5095991;28;20277;-62
2022/01/13 07:34:25;;;;;;;24.77;13.87;;;-1.80;99.90;;;;;;5096030;28;20254;-62
2022/01/13 07:36:51;;;;;;;37.00;14.93;;;-1.70;99.90;;;;;;5095915;28;20172;-62
2022/01/13 07:39:16;;;;;;;31.53;15.10;;;-1.70;99.90;;;;;;5095849;28;20184;-62
2022/01/13 07:41:42;;;;;;;30.93;15.97;;;-1.70;99.90;;;;;;5095874;28;20255;-62
2022/01/13 07:44:09;;;;;;;34.70;16.53;;;-1.70;99.90;;;;;;5095668;28;20581;-62
2022/01/13 07:46:35;;;;;;;30.57;16.17;;;-1.60;99.90;;;;;;5095894;28;20172;-62
2022/01/13 07:49:00;;;;;;;33.57;15.33;;;-1.60;99.90;;;;;;5095818;28;20176;-62
2022/01/13 07:51:26;;;;;;;34.33;16.50;;;-1.50;99.90;;;;;;5095787;28;20182;-62
2022/01/13 07:53:52;;;;;;;36.43;15.17;;;-1.50;99.90;;;;;;5095588;28;20661;-62
2022/01/13 07:56:17;;;;;;;34.83;15.30;;;-1.40;99.90;;;;;;5095469;28;20227;-62
2022/01/13 07:58:46;;;;;;;26.97;13.63;;;-1.40;99.90;;;;;;5095359;28;20314;-62
2022/01/13 08:01:11;;;;;;;28.30;15.33;;;-1.40;99.90;;;;;;5095473;28;20523;-61
2022/01/13 08:03:37;;;;;;;32.83;15.97;;;-1.40;99.90;;;;;;5094234;28;20172;-61
2022/01/13 08:06:04;;;;;;;31.97;15.33;;;-1.40;99.90;;;;;;5095316;28;20176;-61
2022/01/13 08:08:35;;;;;;;35.57;16.83;;;-1.40;99.90;;;;;;5095340;28;20176;-61
2022/01/13 08:11:02;;;;;;;35.50;16.57;;;-1.30;99.90;;;;;;5095218;28;20638;-62
2022/01/13 08:13:27;;;;;;;36.23;17.27;;;-1.30;99.90;;;;;;5095316;28;20180;-61
2022/01/13 08:15:55;;;;;;;34.87;16.80;;;-1.20;99.90;;;;;;5093929;28;20511;-61
2022/01/13 08:21:05;;;;;;;36.93;17.07;;;-1.00;99.90;;;;;;5095293;28;20644;-61
2022/01/13 08:23:30;;;;;;;38.10;17.70;;;-0.90;99.90;;;;;;5094991;28;20218;-61
2022/01/13 08:25:57;;;;;;;32.87;17.00;;;-0.80;99.90;;;;;;5093646;28;20179;-61
2022/01/13 08:28:23;;;;;;;36.13;16.63;;;-0.70;99.90;;;;;;5095010;28;20206;-61
2022/01/13 08:30:48;;;;;;;39.23;16.70;;;-0.60;99.90;;;;;;5094775;28;20173;-61
2022/01/13 08:33:14;;;;;;;37.27;17.10;;;-0.50;99.90;;;;;;5094734;28;20523;-61
2022/01/13 08:35:43;;;;;;;32.13;16.43;;;-0.40;99.90;;;;;;5094795;28;20172;-61
2022/01/13 08:38:16;;;;;;;44.13;20.00;;;-0.30;99.90;;;;;;5094500;28;20674;-61
2022/01/13 08:40:43;;;;;;;164.23;56.60;;;-0.20;99.90;;;;;;5094748;28;20176;-61
2022/01/13 08:43:08;;;;;;;176.87;58.50;;;-0.10;99.90;;;;;;5094342;28;20646;-61
2022/01/13 08:45:34;;;;;;;152.90;51.60;;;0.10;99.90;;;;;;5094442;28;20172;-61
2022/01/13 08:47:59;;;;;;;135.30;44.67;;;0.20;99.90;;;;;;5094245;28;20245;-62
2022/01/13 08:50:25;;;;;;;99.87;35.77;;;0.30;99.90;;;;;;5094479;28;20165;-61
2022/01/13 08:52:51;;;;;;;77.57;28.97;;;0.40;99.90;;;;;;5094229;28;20203;-62
2022/01/13 08:55:17;;;;;;;63.37;25.37;;;0.60;99.90;;;;;;5094169;28;20255;-62
2022/01/13 08:57:43;;;;;;;45.53;23.20;;;0.60;99.90;;;;;;5094225;28;20303;-62
2022/01/13 09:00:10;;;;;;;45.13;21.13;;;0.80;99.90;;;;;;5093967;28;20771;-62
2022/01/13 09:02:35;;;;;;;42.17;20.03;;;0.90;99.90;;;;;;5094353;28;20218;-61
2022/01/13 09:05:02;;;;;;;37.17;19.10;;;1.00;99.90;;;;;;5094095;28;20562;-62
2022/01/13 09:07:28;;;;;;;34.50;17.00;;;1.10;99.90;;;;;;5094185;28;20179;-62
2022/01/13 09:09:54;;;;;;;34.63;17.70;;;1.30;99.90;;;;;;5094163;28;20204;-62
2022/01/13 09:12:20;;;;;;;35.13;17.17;;;1.40;99.90;;;;;;5094083;28;20639;-62
2022/01/13 09:14:46;;;;;;;36.40;16.93;;;1.50;99.90;;;;;;5094041;28;20174;-61
2022/01/13 09:17:20;;;;;;;35.10;17.93;;;1.70;99.90;;;;;;5093749;28;20174;-61
2022/01/13 09:19:45;;;;;;;33.53;17.03;;;1.80;99.90;;;;;;5094101;28;20575;-61
2022/01/13 09:22:11;;;;;;;29.87;15.57;;;1.90;99.90;;;;;;5093806;28;20183;-61
2022/01/13 09:24:37;;;;;;;27.93;15.93;;;2.00;99.90;;;;;;5093787;28;20172;-61
2022/01/13 09:27:03;;;;;;;29.83;16.27;;;2.00;99.90;;;;;;5093628;28;20180;-62
2022/01/13 09:29:29;;;;;;;27.05;15.45;;;2.10;99.90;;;;;;5093845;28;20173;-62
2022/01/13 09:31:55;;;;;;;30.60;15.35;;;2.20;99.90;;;;;;5092861;28;20176;-61
2022/01/13 09:34:20;;;;;;;31.02;16.77;;;2.30;99.90;;;;;;5093581;28;20182;-61
2022/01/13 09:36:46;;;;;;;37.03;19.38;;;2.50;99.90;;;;;;5093722;28;20164;-61
2022/01/13 09:39:12;;;;;;;38.65;16.08;;;2.60;99.90;;;;;;5093443;28;20569;-61
2022/01/13 09:41:42;;;;;;;27.25;14.18;;;2.70;99.90;;;;;;5093594;28;20219;-61
2022/01/13 09:44:09;;;;;;;24.88;13.60;;;2.70;99.90;;;;;;5093412;28;20587;-61
2022/01/13 09:46:36;;;;;;;23.98;13.82;;;2.80;99.90;;;;;;5093528;28;20172;-61
2022/01/13 09:49:04;;;;;;;29.13;14.98;;;2.90;99.90;;;;;;5093411;28;20180;-61
2022/01/13 09:51:32;;;;;;;23.42;13.63;;;2.90;99.90;;;;;;5093214;28;20647;-61
2022/01/13 09:53:58;;;;;;;29.52;13.68;;;2.90;99.90;;;;;;5093318;28;20195;-61
2022/01/13 09:56:24;;;;;;;26.42;13.88;;;3.00;99.90;;;;;;5093397;28;20635;-61
2022/01/13 09:58:49;;;;;;;27.15;13.65;;;3.10;99.90;;;;;;5092853;28;20327;-61
2022/01/13 10:01:15;;;;;;;23.98;13.23;;;3.10;99.90;;;;;;5093090;28;20251;-61
2022/01/13 10:03:42;;;;;;;24.25;14.18;;;3.20;99.90;;;;;;5093162;28;20187;-61
2022/01/13 10:06:14;;;;;;;23.25;13.50;;;3.20;99.90;;;;;;5092960;28;20176;-61
2022/01/13 10:08:54;;;;;;;24.70;14.43;;;3.30;99.90;;;;;;5093433;28;20191;-61
2022/01/13 10:11:34;;;;;;;28.35;14.77;;;3.30;99.90;;;;;;5091867;28;20175;-61
2022/01/13 10:16:22;;;;;;;27.45;14.80;;;3.30;99.90;;;;;;5092919;28;20258;-61
2022/01/13 10:17:08;;;;;;;24.25;13.65;;;3.40;99.90;;;;;;5092993;28;20651;-61
2022/01/13 10:19:57;;;;;;;23.98;13.35;;;3.50;99.90;;;;;;5093012;28;20206;-61
2022/01/13 10:22:31;;;;;;;26.35;13.73;;;3.60;99.90;;;;;;5091565;28;20176;-61
2022/01/13 10:24:58;;;;;;;23.70;12.40;;;3.60;99.90;;;;;;5092873;28;20184;-61
2022/01/13 10:27:33;;;;;;;26.40;12.20;;;3.70;99.90;;;;;;5092713;28;20561;-61
2022/01/13 10:30:15;;;;;;;32.40;15.65;;;3.70;99.90;;;;;;5092662;28;20285;-62
2022/01/13 10:32:42;;;;;;;26.30;13.13;;;3.90;99.90;;;;;;5092803;28;20175;-61
2022/01/13 10:35:11;;;;;;;22.50;12.95;;;4.10;99.90;;;;;;5092496;28;20182;-61
2022/01/13 10:37:48;;;;;;;27.40;13.30;;;4.20;99.90;;;;;;5092617;28;20215;-61
2022/01/13 10:40:18;;;;;;;23.73;13.32;;;4.30;99.90;;;;;;5092490;28;20253;-61
2022/01/13 10:43:06;;;;;;;25.30;13.90;;;4.40;99.90;;;;;;5092459;28;20172;-61
2022/01/13 10:45:35;;;;;;;22.20;12.48;;;4.50;99.90;;;;;;5084219;28;20196;-61
2022/01/13 10:48:05;;;;;;;22.63;11.82;;;4.50;99.90;;;;;;5092450;28;20178;-61
2022/01/13 10:50:36;;;;;;;21.27;10.65;;;4.60;99.90;;;;;;5092389;28;20575;-61
2022/01/13 10:53:05;;;;;;;18.20;11.00;;;4.60;99.90;;;;;;5092474;28;20192;-62
2022/01/13 10:55:35;;;;;;;18.13;10.55;;;4.70;99.90;;;;;;5092441;28;20180;-61
2022/01/13 10:58:01;;;;;;;21.88;12.20;;;4.70;99.90;;;;;;5092167;28;20251;-62
2022/01/13 11:00:30;;;;;;;20.13;11.77;;;4.80;99.90;;;;;;5092447;28;20519;-61
2022/01/13 11:03:12;;;;;;;22.15;11.93;;;4.90;99.90;;;;;;5092618;28;20572;-61
2022/01/13 11:05:41;;;;;;;18.95;11.30;;;5.00;99.90;;;;;;5092399;28;20585;-61
2022/01/13 11:08:08;;;;;;;16.88;9.73;;;5.00;99.90;;;;;;5092282;28;20772;-61
2022/01/13 11:10:36;;;;;;;19.98;10.85;;;5.00;99.90;;;;;;5092402;28;20172;-61
2022/01/13 11:13:05;;;;;;;15.77;8.15;;;4.80;99.90;;;;;;5092207;28;20503;-62
2022/01/13 11:15:31;;;;;;;15.45;8.52;;;4.70;99.90;;;;;;5092111;28;20171;-61
2022/01/13 11:17:59;;;;;;;12.07;7.35;;;4.70;99.90;;;;;;5092047;28;20694;-61
2022/01/13 11:20:26;;;;;;;12.48;7.15;;;4.70;99.90;;;;;;5092195;28;20183;-62
2022/01/13 11:22:54;;;;;;;12.68;7.40;;;4.80;99.90;;;;;;5092161;28;20184;-61
2022/01/13 11:25:23;;;;;;;13.57;7.72;;;4.80;99.90;;;;;;5092086;28;20636;-61
2022/01/13 11:27:51;;;;;;;14.57;8.70;;;4.80;99.90;;;;;;5092056;28;20599;-61
2022/01/13 11:30:19;;;;;;;18.58;10.48;;;4.80;99.90;;;;;;5092092;28;20215;-62
2022/01/13 11:32:47;;;;;;;19.98;11.80;;;4.60;99.90;;;;;;5092046;28;20187;-62
2022/01/13 11:35:22;;;;;;;24.20;12.38;;;4.50;99.90;;;;;;5090750;28;20513;-62
2022/01/13 11:37:48;;;;;;;23.05;11.85;;;4.50;99.90;;;;;;5092006;28;20208;-62
2022/01/13 11:40:26;;;;;;;20.88;12.60;;;4.60;99.90;;;;;;5092219;28;20186;-62
2022/01/13 11:42:54;;;;;;;18.33;10.90;;;4.50;99.90;;;;;;5091847;28;20168;-61
2022/01/13 11:45:21;;;;;;;14.68;9.45;;;4.60;99.90;;;;;;5092231;28;20384;-62
2022/01/13 11:47:48;;;;;;;19.00;9.20;;;4.60;99.90;;;;;;5092069;28;20180;-62
2022/01/13 11:50:30;;;;;;;18.02;10.55;;;4.60;99.90;;;;;;5092079;28;20176;-62
2022/01/13 11:52:57;;;;;;;20.10;10.43;;;4.50;99.90;;;;;;5091922;28;20183;-62
2022/01/13 11:55:28;;;;;;;16.17;9.57;;;4.50;99.90;;;;;;5095297;28;20547;-62
2022/01/13 11:58:16;;;;;;;16.73;9.45;;;4.50;99.90;;;;;;5095180;28;20704;-62
2022/01/13 12:00:46;;;;;;;15.95;9.60;;;4.50;99.90;;;;;;5095528;28;20699;-64
2022/01/13 12:03:33;;;;;;;16.02;10.23;;;4.50;99.90;;;;;;5095513;28;20169;-63
2022/01/13 12:06:01;;;;;;;15.05;9.75;;;4.50;99.90;;;;;;5095410;28;20232;-63
2022/01/13 12:08:42;;;;;;;19.02;10.77;;;4.60;99.90;;;;;;5095436;28;20593;-63
2022/01/13 12:11:10;;;;;;;16.98;10.52;;;4.60;99.90;;;;;;5095218;28;20184;-63
2022/01/13 12:13:44;;;;;;;15.88;9.23;;;4.70;99.90;;;;;;5095407;28;20189;-62
2022/01/13 12:16:11;;;;;;;15.82;9.02;;;4.80;99.90;;;;;;5095009;28;20208;-64
2022/01/13 12:18:42;;;;;;;15.52;9.88;;;4.80;99.90;;;;;;5095230;28;20211;-62
2022/01/13 12:21:28;;;;;;;15.23;9.07;;;4.90;99.90;;;;;;5095011;28;20267;-62
2022/01/13 12:23:55;;;;;;;14.13;8.38;;;4.90;99.90;;;;;;5095235;28;20191;-62
2022/01/13 12:26:33;;;;;;;13.77;7.57;;;4.80;99.90;;;;;;5094963;28;20263;-63
2022/01/13 12:29:08;;;;;;;13.55;7.88;;;4.80;99.90;;;;;;5094909;28;20251;-63
2022/01/13 12:31:34;;;;;;;14.57;7.43;;;4.70;99.90;;;;;;5093883;28;20636;-63
2022/01/13 12:33:59;;;;;;;12.43;7.53;;;4.60;99.90;;;;;;5094826;28;20267;-63
2022/01/13 12:36:25;;;;;;;11.48;6.97;;;4.60;99.90;;;;;;5093506;28;20204;-63
2022/01/13 12:38:58;;;;;;;13.40;7.60;;;4.60;99.90;;;;;;5093441;28;20211;-63
2022/01/13 12:41:26;;;;;;;13.02;8.07;;;4.60;99.90;;;;;;5094607;28;20180;-63
2022/01/13 12:44:12;;;;;;;14.23;8.05;;;4.70;99.90;;;;;;5094617;28;20187;-63
2022/01/13 12:46:39;;;;;;;15.02;8.30;;;4.70;99.90;;;;;;5093831;28;20172;-63
2022/01/13 12:49:05;;;;;;;14.75;8.48;;;4.60;99.90;;;;;;5094679;28;20194;-62
2022/01/13 12:51:31;;;;;;;12.93;7.85;;;4.60;99.90;;;;;;5094513;28;20200;-62
2022/01/13 12:53:56;;;;;;;12.07;7.40;;;4.50;99.90;;;;;;5094474;28;20204;-62
2022/01/13 12:56:25;;;;;;;14.68;8.85;;;4.50;99.90;;;;;;5094401;28;20180;-62
2022/01/13 12:58:58;;;;;;;13.18;8.85;;;4.50;99.90;;;;;;5094076;28;20231;-61
2022/01/13 13:01:29;;;;;;;17.45;9.32;;;4.50;99.90;;;;;;5094270;28;20171;-62